sensor_id;sensor_type;location;lat;lon;timestamp;P1;durP1;ratioP1;P2;durP2;ratioP2
76512;SDS011;65345;0.000;0.000;2023-12-20T00:00:16;7.37;;;3.70;;
76512;SDS011;65345;0.000;0.000;2023-12-20T00:00:46;6.77;;;3.43;;
76512;SDS011;65345;0.000;0.000;2023-12-20T00:01:16;6.30;;;3.50;;
76512;SDS011;65345;0.000;0.000;2023-12-20T00:01:47;6.07;;;3.30;;
76512;SDS011;65345;0.000;0.000;2023-12-20T00:02:17;6.87;;;3.30;;
76512;SDS011;65345;0.000;0.000;2023-12-20T00:02:47;6.87;;;3.60;;
76512;SDS011;65345;0.000;0.000;2023-12-20T00:03:18;6.70;;;3.28;;
76512;SDS011;65345;0.000;0.000;2023-12-20T00:03:48;8.83;;;3.40;;
76512;SDS011;65345;0.000;0.000;2023-12-20T00:04:18;6.87;;;3.60;;
76512;SDS011;65345;0.000;0.000;2023-12-20T00:04:49;6.83;;;3.47;;
76512;SDS011;65345;0.000;0.000;2023-12-20T00:05:19;7.33;;;3.40;;
76512;SDS011;65345;0.000;0.000;2023-12-20T00:05:49;7.60;;;3.70;;
76512;SDS011;65345;0.000;0.000;2023-12-20T00:06:20;7.93;;;3.47;;
76512;SDS011;65345;0.000;0.000;2023-12-20T00:06:50;5.93;;;3.17;;
76512;SDS011;65345;0.000;0.000;2023-12-20T00:07:20;7.72;;;3.10;;
76512;SDS011;65345;0.000;0.000;2023-12-20T00:07:50;6.73;;;3.40;;
76512;SDS011;65345;0.000;0.000;2023-12-20T00:08:21;6.53;;;3.63;;
76512;SDS011;65345;0.000;0.000;2023-12-20T00:08:51;6.35;;;3.20;;
76512;SDS011;65345;0.000;0.000;2023-12-20T00:09:21;6.10;;;3.20;;
76512;SDS011;65345;0.000;0.000;2023-12-20T00:09:51;7.03;;;3.50;;
76512;SDS011;65345;0.000;0.000;2023-12-20T00:10:22;7.65;;;3.50;;
76512;SDS011;65345;0.000;0.000;2023-12-20T00:10:52;6.13;;;3.43;;
76512;SDS011;65345;0.000;0.000;2023-12-20T00:11:22;8.20;;;3.50;;
76512;SDS011;65345;0.000;0.000;2023-12-20T00:11:52;6.30;;;3.20;;
76512;SDS011;65345;0.000;0.000;2023-12-20T00:12:23;6.13;;;3.20;;
76512;SDS011;65345;0.000;0.000;2023-12-20T00:12:53;7.13;;;3.17;;
76512;SDS011;65345;0.000;0.000;2023-12-20T00:13:23;5.63;;;3.13;;
76512;SDS011;65345;0.000;0.000;2023-12-20T00:13:53;6.32;;;3.30;;
76512;SDS011;65345;0.000;0.000;2023-12-20T00:14:24;6.07;;;3.10;;
76512;SDS011;65345;0.000;0.000;2023-12-20T00:14:54;6.10;;;3.30;;
76512;SDS011;65345;0.000;0.000;2023-12-20T00:15:24;5.65;;;3.30;;
76512;SDS011;65345;0.000;0.000;2023-12-20T00:15:54;6.27;;;3.20;;
76512;SDS011;65345;0.000;0.000;2023-12-20T00:16:25;6.37;;;3.17;;
76512;SDS011;65345;0.000;0.000;2023-12-20T00:16:55;6.60;;;3.27;;
76512;SDS011;65345;0.000;0.000;2023-12-20T00:17:25;6.83;;;3.20;;
76512;SDS011;65345;0.000;0.000;2023-12-20T00:17:55;6.03;;;3.30;;
76512;SDS011;65345;0.000;0.000;2023-12-20T00:18:26;7.30;;;3.13;;
76512;SDS011;65345;0.000;0.000;2023-12-20T00:18:56;7.40;;;3.38;;
76512;SDS011;65345;0.000;0.000;2023-12-20T00:19:26;7.83;;;3.20;;
76512;SDS011;65345;0.000;0.000;2023-12-20T00:19:56;6.80;;;3.20;;
76512;SDS011;65345;0.000;0.000;2023-12-20T00:20:27;6.85;;;3.30;;
76512;SDS011;65345;0.000;0.000;2023-12-20T00:20:57;6.00;;;3.27;;
76512;SDS011;65345;0.000;0.000;2023-12-20T00:21:27;7.27;;;3.30;;
76512;SDS011;65345;0.000;0.000;2023-12-20T00:21:57;6.40;;;3.20;;
76512;SDS011;65345;0.000;0.000;2023-12-20T00:22:29;8.43;;;3.38;;
76512;SDS011;65345;0.000;0.000;2023-12-20T00:22:59;8.40;;;3.30;;
76512;SDS011;65345;0.000;0.000;2023-12-20T00:23:30;7.20;;;3.40;;
76512;SDS011;65345;0.000;0.000;2023-12-20T00:24:00;6.97;;;3.30;;
76512;SDS011;65345;0.000;0.000;2023-12-20T00:24:30;6.28;;;3.40;;
76512;SDS011;65345;0.000;0.000;2023-12-20T00:25:00;6.97;;;3.53;;
76512;SDS011;65345;0.000;0.000;2023-12-20T00:25:31;6.87;;;3.20;;
76512;SDS011;65345;0.000;0.000;2023-12-20T00:26:01;6.90;;;3.27;;
76512;SDS011;65345;0.000;0.000;2023-12-20T00:26:31;6.45;;;3.20;;
76512;SDS011;65345;0.000;0.000;2023-12-20T00:27:02;6.67;;;3.17;;
76512;SDS011;65345;0.000;0.000;2023-12-20T00:27:32;7.05;;;3.10;;
76512;SDS011;65345;0.000;0.000;2023-12-20T00:28:02;6.87;;;3.03;;
76512;SDS011;65345;0.000;0.000;2023-12-20T00:28:33;5.68;;;3.15;;
76512;SDS011;65345;0.000;0.000;2023-12-20T00:29:03;5.47;;;2.90;;
76512;SDS011;65345;0.000;0.000;2023-12-20T00:29:33;6.17;;;3.20;;
76512;SDS011;65345;0.000;0.000;2023-12-20T00:30:04;6.43;;;3.27;;
76512;SDS011;65345;0.000;0.000;2023-12-20T00:30:34;6.20;;;3.20;;
76512;SDS011;65345;0.000;0.000;2023-12-20T00:31:04;5.40;;;2.83;;
76512;SDS011;65345;0.000;0.000;2023-12-20T00:31:34;6.05;;;2.95;;
76512;SDS011;65345;0.000;0.000;2023-12-20T00:32:05;6.35;;;3.10;;
76512;SDS011;65345;0.000;0.000;2023-12-20T00:32:36;6.03;;;3.23;;
76512;SDS011;65345;0.000;0.000;2023-12-20T00:33:06;6.93;;;3.07;;
76512;SDS011;65345;0.000;0.000;2023-12-20T00:33:36;7.17;;;3.30;;
76512;SDS011;65345;0.000;0.000;2023-12-20T00:34:07;6.33;;;3.20;;
76512;SDS011;65345;0.000;0.000;2023-12-20T00:34:37;7.40;;;3.10;;
76512;SDS011;65345;0.000;0.000;2023-12-20T00:35:07;6.22;;;3.05;;
76512;SDS011;65345;0.000;0.000;2023-12-20T00:35:37;6.80;;;3.40;;
76512;SDS011;65345;0.000;0.000;2023-12-20T00:36:08;6.67;;;3.20;;
76512;SDS011;65345;0.000;0.000;2023-12-20T00:36:38;6.88;;;3.33;;
76512;SDS011;65345;0.000;0.000;2023-12-20T00:37:08;6.77;;;3.00;;
76512;SDS011;65345;0.000;0.000;2023-12-20T00:37:38;6.30;;;3.23;;
76512;SDS011;65345;0.000;0.000;2023-12-20T00:38:09;6.20;;;3.25;;
76512;SDS011;65345;0.000;0.000;2023-12-20T00:38:40;7.43;;;3.10;;
76512;SDS011;65345;0.000;0.000;2023-12-20T00:39:10;5.87;;;3.10;;
76512;SDS011;65345;0.000;0.000;2023-12-20T00:39:40;6.70;;;3.30;;
76512;SDS011;65345;0.000;0.000;2023-12-20T00:40:10;6.90;;;3.30;;
76512;SDS011;65345;0.000;0.000;2023-12-20T00:40:41;5.93;;;3.10;;
76512;SDS011;65345;0.000;0.000;2023-12-20T00:41:11;5.90;;;3.23;;
76512;SDS011;65345;0.000;0.000;2023-12-20T00:41:41;7.10;;;3.20;;
76512;SDS011;65345;0.000;0.000;2023-12-20T00:42:12;6.47;;;3.50;;
76512;SDS011;65345;0.000;0.000;2023-12-20T00:42:42;6.00;;;3.10;;
76512;SDS011;65345;0.000;0.000;2023-12-20T00:43:12;6.32;;;3.17;;
76512;SDS011;65345;0.000;0.000;2023-12-20T00:43:42;6.27;;;3.27;;
76512;SDS011;65345;0.000;0.000;2023-12-20T00:44:13;5.87;;;3.10;;
76512;SDS011;65345;0.000;0.000;2023-12-20T00:44:43;5.82;;;3.00;;
76512;SDS011;65345;0.000;0.000;2023-12-20T00:45:13;5.53;;;3.00;;
76512;SDS011;65345;0.000;0.000;2023-12-20T00:45:44;5.03;;;3.10;;
76512;SDS011;65345;0.000;0.000;2023-12-20T00:46:15;5.27;;;2.90;;
76512;SDS011;65345;0.000;0.000;2023-12-20T00:46:45;6.55;;;3.15;;
76512;SDS011;65345;0.000;0.000;2023-12-20T00:47:15;6.50;;;3.10;;
76512;SDS011;65345;0.000;0.000;2023-12-20T00:47:45;6.57;;;3.00;;
76512;SDS011;65345;0.000;0.000;2023-12-20T00:48:16;5.35;;;3.10;;
76512;SDS011;65345;0.000;0.000;2023-12-20T00:48:46;5.97;;;2.90;;
76512;SDS011;65345;0.000;0.000;2023-12-20T00:49:16;5.87;;;2.90;;
76512;SDS011;65345;0.000;0.000;2023-12-20T00:49:46;6.57;;;3.00;;
76512;SDS011;65345;0.000;0.000;2023-12-20T00:50:17;6.13;;;3.00;;
76512;SDS011;65345;0.000;0.000;2023-12-20T00:50:47;5.70;;;3.03;;
76512;SDS011;65345;0.000;0.000;2023-12-20T00:51:17;5.43;;;3.00;;
76512;SDS011;65345;0.000;0.000;2023-12-20T00:51:47;6.85;;;3.08;;
76512;SDS011;65345;0.000;0.000;2023-12-20T00:52:20;5.65;;;3.08;;
76512;SDS011;65345;0.000;0.000;2023-12-20T00:52:52;5.15;;;2.97;;
76512;SDS011;65345;0.000;0.000;2023-12-20T00:53:24;5.65;;;2.75;;
76512;SDS011;65345;0.000;0.000;2023-12-20T00:53:55;5.73;;;2.93;;
76512;SDS011;65345;0.000;0.000;2023-12-20T00:54:25;5.95;;;2.95;;
76512;SDS011;65345;0.000;0.000;2023-12-20T00:54:55;5.20;;;2.73;;
76512;SDS011;65345;0.000;0.000;2023-12-20T00:55:26;6.13;;;2.90;;
76512;SDS011;65345;0.000;0.000;2023-12-20T00:55:56;6.27;;;3.20;;
76512;SDS011;65345;0.000;0.000;2023-12-20T00:56:28;6.65;;;3.20;;
76512;SDS011;65345;0.000;0.000;2023-12-20T00:56:58;5.97;;;2.93;;
76512;SDS011;65345;0.000;0.000;2023-12-20T00:57:29;6.50;;;3.03;;
76512;SDS011;65345;0.000;0.000;2023-12-20T00:58:01;5.57;;;2.78;;
76512;SDS011;65345;0.000;0.000;2023-12-20T00:58:31;5.80;;;2.73;;
76512;SDS011;65345;0.000;0.000;2023-12-20T00:59:01;5.67;;;2.70;;
76512;SDS011;65345;0.000;0.000;2023-12-20T00:59:31;5.88;;;3.05;;
76512;SDS011;65345;0.000;0.000;2023-12-20T01:00:02;5.00;;;3.00;;
76512;SDS011;65345;0.000;0.000;2023-12-20T01:00:32;5.90;;;2.93;;
76512;SDS011;65345;0.000;0.000;2023-12-20T01:01:03;5.77;;;2.70;;
76512;SDS011;65345;0.000;0.000;2023-12-20T01:01:33;6.32;;;2.97;;
76512;SDS011;65345;0.000;0.000;2023-12-20T01:02:03;6.00;;;2.90;;
76512;SDS011;65345;0.000;0.000;2023-12-20T01:02:34;6.03;;;2.60;;
76512;SDS011;65345;0.000;0.000;2023-12-20T01:03:04;6.50;;;2.90;;
76512;SDS011;65345;0.000;0.000;2023-12-20T01:03:34;5.53;;;2.60;;
76512;SDS011;65345;0.000;0.000;2023-12-20T01:04:04;6.53;;;3.00;;
76512;SDS011;65345;0.000;0.000;2023-12-20T01:04:35;5.60;;;2.80;;
76512;SDS011;65345;0.000;0.000;2023-12-20T01:05:05;5.67;;;3.00;;
76512;SDS011;65345;0.000;0.000;2023-12-20T01:05:37;5.45;;;2.88;;
76512;SDS011;65345;0.000;0.000;2023-12-20T01:06:07;5.43;;;3.00;;
76512;SDS011;65345;0.000;0.000;2023-12-20T01:06:37;7.33;;;3.00;;
76512;SDS011;65345;0.000;0.000;2023-12-20T01:07:07;5.43;;;2.50;;
76512;SDS011;65345;0.000;0.000;2023-12-20T01:07:38;5.40;;;2.73;;
76512;SDS011;65345;0.000;0.000;2023-12-20T01:08:08;6.67;;;3.10;;
76512;SDS011;65345;0.000;0.000;2023-12-20T01:08:38;6.47;;;2.92;;
76512;SDS011;65345;0.000;0.000;2023-12-20T01:09:09;5.57;;;2.70;;
76512;SDS011;65345;0.000;0.000;2023-12-20T01:09:39;5.97;;;2.63;;
76512;SDS011;65345;0.000;0.000;2023-12-20T01:10:09;6.60;;;3.07;;
76512;SDS011;65345;0.000;0.000;2023-12-20T01:10:40;6.30;;;2.80;;
76512;SDS011;65345;0.000;0.000;2023-12-20T01:11:10;6.15;;;2.83;;
76512;SDS011;65345;0.000;0.000;2023-12-20T01:11:40;6.00;;;3.00;;
76512;SDS011;65345;0.000;0.000;2023-12-20T01:12:10;5.23;;;2.90;;
76512;SDS011;65345;0.000;0.000;2023-12-20T01:12:41;5.40;;;2.80;;
76512;SDS011;65345;0.000;0.000;2023-12-20T01:13:11;4.87;;;2.70;;
76512;SDS011;65345;0.000;0.000;2023-12-20T01:13:41;6.03;;;2.80;;
76512;SDS011;65345;0.000;0.000;2023-12-20T01:14:12;5.78;;;2.75;;
76512;SDS011;65345;0.000;0.000;2023-12-20T01:14:42;5.40;;;2.93;;
76512;SDS011;65345;0.000;0.000;2023-12-20T01:15:12;5.83;;;3.00;;
76512;SDS011;65345;0.000;0.000;2023-12-20T01:15:42;5.30;;;2.78;;
76512;SDS011;65345;0.000;0.000;2023-12-20T01:16:13;5.70;;;2.80;;
76512;SDS011;65345;0.000;0.000;2023-12-20T01:16:43;6.53;;;3.07;;
76512;SDS011;65345;0.000;0.000;2023-12-20T01:17:13;6.43;;;2.72;;
76512;SDS011;65345;0.000;0.000;2023-12-20T01:17:44;5.83;;;3.00;;
76512;SDS011;65345;0.000;0.000;2023-12-20T01:18:14;4.90;;;2.60;;
76512;SDS011;65345;0.000;0.000;2023-12-20T01:18:44;5.63;;;2.97;;
76512;SDS011;65345;0.000;0.000;2023-12-20T01:19:15;4.93;;;2.63;;
76512;SDS011;65345;0.000;0.000;2023-12-20T01:19:46;5.75;;;2.90;;
76512;SDS011;65345;0.000;0.000;2023-12-20T01:20:16;5.77;;;2.90;;
76512;SDS011;65345;0.000;0.000;2023-12-20T01:20:47;5.80;;;2.93;;
76512;SDS011;65345;0.000;0.000;2023-12-20T01:21:17;6.03;;;2.60;;
76512;SDS011;65345;0.000;0.000;2023-12-20T01:21:47;6.57;;;3.00;;
76512;SDS011;65345;0.000;0.000;2023-12-20T01:22:17;5.30;;;2.63;;
76512;SDS011;65345;0.000;0.000;2023-12-20T01:22:47;5.53;;;2.93;;
76512;SDS011;65345;0.000;0.000;2023-12-20T01:23:18;5.97;;;3.00;;
76512;SDS011;65345;0.000;0.000;2023-12-20T01:23:48;5.40;;;3.00;;
76512;SDS011;65345;0.000;0.000;2023-12-20T01:24:18;5.77;;;2.90;;
76512;SDS011;65345;0.000;0.000;2023-12-20T01:24:48;4.82;;;2.60;;
76512;SDS011;65345;0.000;0.000;2023-12-20T01:25:19;6.00;;;2.70;;
76512;SDS011;65345;0.000;0.000;2023-12-20T01:25:49;5.60;;;2.73;;
76512;SDS011;65345;0.000;0.000;2023-12-20T01:26:20;6.13;;;2.80;;
76512;SDS011;65345;0.000;0.000;2023-12-20T01:26:50;6.07;;;2.70;;
76512;SDS011;65345;0.000;0.000;2023-12-20T01:27:20;5.93;;;2.72;;
76512;SDS011;65345;0.000;0.000;2023-12-20T01:27:50;5.90;;;2.77;;
76512;SDS011;65345;0.000;0.000;2023-12-20T01:28:21;5.63;;;2.83;;
76512;SDS011;65345;0.000;0.000;2023-12-20T01:28:51;7.30;;;2.80;;
76512;SDS011;65345;0.000;0.000;2023-12-20T01:29:21;6.53;;;3.13;;
76512;SDS011;65345;0.000;0.000;2023-12-20T01:29:52;5.77;;;2.73;;
76512;SDS011;65345;0.000;0.000;2023-12-20T01:30:22;6.07;;;2.85;;
76512;SDS011;65345;0.000;0.000;2023-12-20T01:30:52;5.20;;;2.70;;
76512;SDS011;65345;0.000;0.000;2023-12-20T01:31:22;5.80;;;3.00;;
76512;SDS011;65345;0.000;0.000;2023-12-20T01:31:53;4.97;;;2.67;;
76512;SDS011;65345;0.000;0.000;2023-12-20T01:32:23;5.80;;;2.77;;
76512;SDS011;65345;0.000;0.000;2023-12-20T01:32:53;4.97;;;2.63;;
76512;SDS011;65345;0.000;0.000;2023-12-20T01:33:24;5.30;;;2.65;;
76512;SDS011;65345;0.000;0.000;2023-12-20T01:33:54;5.90;;;2.80;;
76512;SDS011;65345;0.000;0.000;2023-12-20T01:34:24;5.65;;;2.83;;
76512;SDS011;65345;0.000;0.000;2023-12-20T01:34:55;4.77;;;2.77;;
76512;SDS011;65345;0.000;0.000;2023-12-20T01:35:25;5.90;;;2.87;;
76512;SDS011;65345;0.000;0.000;2023-12-20T01:35:55;5.25;;;2.80;;
76512;SDS011;65345;0.000;0.000;2023-12-20T01:36:25;5.17;;;2.60;;
76512;SDS011;65345;0.000;0.000;2023-12-20T01:36:56;5.13;;;2.57;;
76512;SDS011;65345;0.000;0.000;2023-12-20T01:37:26;6.37;;;2.87;;
76512;SDS011;65345;0.000;0.000;2023-12-20T01:37:59;5.72;;;2.67;;
76512;SDS011;65345;0.000;0.000;2023-12-20T01:38:29;5.07;;;2.60;;
76512;SDS011;65345;0.000;0.000;2023-12-20T01:38:59;5.57;;;2.70;;
76512;SDS011;65345;0.000;0.000;2023-12-20T01:39:29;5.33;;;2.60;;
76512;SDS011;65345;0.000;0.000;2023-12-20T01:40:00;5.95;;;2.75;;
76512;SDS011;65345;0.000;0.000;2023-12-20T01:40:30;5.23;;;2.70;;
76512;SDS011;65345;0.000;0.000;2023-12-20T01:41:00;5.37;;;2.70;;
76512;SDS011;65345;0.000;0.000;2023-12-20T01:41:31;5.70;;;2.75;;
76512;SDS011;65345;0.000;0.000;2023-12-20T01:42:01;5.37;;;2.67;;
76512;SDS011;65345;0.000;0.000;2023-12-20T01:42:32;5.85;;;2.80;;
76512;SDS011;65345;0.000;0.000;2023-12-20T01:43:06;6.53;;;3.07;;
76512;SDS011;65345;0.000;0.000;2023-12-20T01:43:36;5.68;;;2.50;;
76512;SDS011;65345;0.000;0.000;2023-12-20T01:44:07;5.37;;;2.60;;
76512;SDS011;65345;0.000;0.000;2023-12-20T01:44:37;5.47;;;2.67;;
76512;SDS011;65345;0.000;0.000;2023-12-20T01:45:07;4.70;;;2.30;;
76512;SDS011;65345;0.000;0.000;2023-12-20T01:45:38;4.90;;;2.60;;
76512;SDS011;65345;0.000;0.000;2023-12-20T01:46:08;6.10;;;2.95;;
76512;SDS011;65345;0.000;0.000;2023-12-20T01:46:39;4.83;;;2.60;;
76512;SDS011;65345;0.000;0.000;2023-12-20T01:47:09;5.30;;;2.65;;
76512;SDS011;65345;0.000;0.000;2023-12-20T01:47:39;5.90;;;2.83;;
76512;SDS011;65345;0.000;0.000;2023-12-20T01:48:10;5.47;;;2.88;;
76512;SDS011;65345;0.000;0.000;2023-12-20T01:48:40;6.07;;;2.70;;
76512;SDS011;65345;0.000;0.000;2023-12-20T01:49:11;5.45;;;2.67;;
76512;SDS011;65345;0.000;0.000;2023-12-20T01:49:41;5.07;;;2.67;;
76512;SDS011;65345;0.000;0.000;2023-12-20T01:50:12;5.15;;;2.78;;
76512;SDS011;65345;0.000;0.000;2023-12-20T01:50:43;5.77;;;2.87;;
76512;SDS011;65345;0.000;0.000;2023-12-20T01:51:14;5.55;;;2.83;;
76512;SDS011;65345;0.000;0.000;2023-12-20T01:51:45;5.60;;;3.10;;
76512;SDS011;65345;0.000;0.000;2023-12-20T01:52:16;5.50;;;2.60;;
76512;SDS011;65345;0.000;0.000;2023-12-20T01:52:46;5.57;;;2.90;;
76512;SDS011;65345;0.000;0.000;2023-12-20T01:53:17;5.10;;;2.77;;
76512;SDS011;65345;0.000;0.000;2023-12-20T01:53:49;6.25;;;3.10;;
76512;SDS011;65345;0.000;0.000;2023-12-20T01:54:19;5.93;;;3.00;;
76512;SDS011;65345;0.000;0.000;2023-12-20T01:54:50;6.15;;;2.72;;
76512;SDS011;65345;0.000;0.000;2023-12-20T01:55:21;5.63;;;2.67;;
76512;SDS011;65345;0.000;0.000;2023-12-20T01:55:52;5.75;;;2.97;;
76512;SDS011;65345;0.000;0.000;2023-12-20T01:56:24;5.80;;;2.85;;
76512;SDS011;65345;0.000;0.000;2023-12-20T01:56:55;5.50;;;2.90;;
76512;SDS011;65345;0.000;0.000;2023-12-20T01:57:25;5.13;;;2.70;;
76512;SDS011;65345;0.000;0.000;2023-12-20T01:57:56;4.73;;;2.63;;
76512;SDS011;65345;0.000;0.000;2023-12-20T01:58:27;5.60;;;2.85;;
76512;SDS011;65345;0.000;0.000;2023-12-20T01:58:57;5.07;;;2.70;;
76512;SDS011;65345;0.000;0.000;2023-12-20T01:59:28;6.00;;;2.85;;
76512;SDS011;65345;0.000;0.000;2023-12-20T01:59:58;5.20;;;2.88;;
76512;SDS011;65345;0.000;0.000;2023-12-20T02:00:29;5.40;;;3.10;;
76512;SDS011;65345;0.000;0.000;2023-12-20T02:01:00;5.50;;;2.90;;
76512;SDS011;65345;0.000;0.000;2023-12-20T02:01:30;5.63;;;2.70;;
76512;SDS011;65345;0.000;0.000;2023-12-20T02:02:00;5.20;;;2.72;;
76512;SDS011;65345;0.000;0.000;2023-12-20T02:02:31;5.47;;;2.60;;
76512;SDS011;65345;0.000;0.000;2023-12-20T02:03:01;5.93;;;2.90;;
76512;SDS011;65345;0.000;0.000;2023-12-20T02:03:32;5.25;;;2.90;;
76512;SDS011;65345;0.000;0.000;2023-12-20T02:04:02;5.13;;;2.80;;
76512;SDS011;65345;0.000;0.000;2023-12-20T02:04:33;5.53;;;2.65;;
76512;SDS011;65345;0.000;0.000;2023-12-20T02:05:05;5.65;;;2.75;;
76512;SDS011;65345;0.000;0.000;2023-12-20T02:05:35;5.95;;;2.67;;
76512;SDS011;65345;0.000;0.000;2023-12-20T02:06:07;5.22;;;2.50;;
76512;SDS011;65345;0.000;0.000;2023-12-20T02:06:37;5.07;;;2.80;;
76512;SDS011;65345;0.000;0.000;2023-12-20T02:07:09;5.38;;;2.60;;
76512;SDS011;65345;0.000;0.000;2023-12-20T02:07:39;5.97;;;2.90;;
76512;SDS011;65345;0.000;0.000;2023-12-20T02:08:10;5.10;;;2.77;;
76512;SDS011;65345;0.000;0.000;2023-12-20T02:08:40;5.18;;;2.78;;
76512;SDS011;65345;0.000;0.000;2023-12-20T02:09:11;5.07;;;2.87;;
76512;SDS011;65345;0.000;0.000;2023-12-20T02:09:41;5.05;;;2.80;;
76512;SDS011;65345;0.000;0.000;2023-12-20T02:10:12;5.67;;;2.90;;
76512;SDS011;65345;0.000;0.000;2023-12-20T02:10:43;4.78;;;2.60;;
76512;SDS011;65345;0.000;0.000;2023-12-20T02:11:13;5.20;;;2.90;;
76512;SDS011;65345;0.000;0.000;2023-12-20T02:11:43;5.40;;;2.60;;
76512;SDS011;65345;0.000;0.000;2023-12-20T02:12:14;5.70;;;2.80;;
76512;SDS011;65345;0.000;0.000;2023-12-20T02:12:44;5.30;;;2.90;;
76512;SDS011;65345;0.000;0.000;2023-12-20T02:13:14;4.97;;;2.50;;
76512;SDS011;65345;0.000;0.000;2023-12-20T02:13:44;6.07;;;3.00;;
76512;SDS011;65345;0.000;0.000;2023-12-20T02:14:15;5.57;;;2.80;;
76512;SDS011;65345;0.000;0.000;2023-12-20T02:14:45;6.70;;;2.80;;
76512;SDS011;65345;0.000;0.000;2023-12-20T02:15:15;6.67;;;2.90;;
76512;SDS011;65345;0.000;0.000;2023-12-20T02:15:45;4.60;;;2.60;;
76512;SDS011;65345;0.000;0.000;2023-12-20T02:16:16;5.13;;;2.73;;
76512;SDS011;65345;0.000;0.000;2023-12-20T02:16:46;6.20;;;2.80;;
76512;SDS011;65345;0.000;0.000;2023-12-20T02:17:17;5.50;;;2.83;;
76512;SDS011;65345;0.000;0.000;2023-12-20T02:17:47;5.43;;;2.77;;
76512;SDS011;65345;0.000;0.000;2023-12-20T02:18:18;6.18;;;2.72;;
76512;SDS011;65345;0.000;0.000;2023-12-20T02:18:48;5.38;;;2.70;;
76512;SDS011;65345;0.000;0.000;2023-12-20T02:19:19;6.13;;;2.73;;
76512;SDS011;65345;0.000;0.000;2023-12-20T02:19:49;5.03;;;2.60;;
76512;SDS011;65345;0.000;0.000;2023-12-20T02:20:20;5.10;;;2.57;;
76512;SDS011;65345;0.000;0.000;2023-12-20T02:20:50;4.78;;;2.50;;
76512;SDS011;65345;0.000;0.000;2023-12-20T02:21:33;4.73;;;2.50;;
76512;SDS011;65345;0.000;0.000;2023-12-20T02:22:09;6.00;;;2.72;;
76512;SDS011;65345;0.000;0.000;2023-12-20T02:22:39;5.40;;;2.67;;
76512;SDS011;65345;0.000;0.000;2023-12-20T02:23:10;5.40;;;2.85;;
76512;SDS011;65345;0.000;0.000;2023-12-20T02:23:40;5.37;;;2.60;;
76512;SDS011;65345;0.000;0.000;2023-12-20T02:24:10;5.13;;;2.77;;
76512;SDS011;65345;0.000;0.000;2023-12-20T02:24:41;5.07;;;2.83;;
76512;SDS011;65345;0.000;0.000;2023-12-20T02:25:11;5.50;;;3.10;;
76512;SDS011;65345;0.000;0.000;2023-12-20T02:25:41;5.23;;;2.67;;
76512;SDS011;65345;0.000;0.000;2023-12-20T02:26:12;5.10;;;2.60;;
76512;SDS011;65345;0.000;0.000;2023-12-20T02:26:43;5.30;;;2.72;;
76512;SDS011;65345;0.000;0.000;2023-12-20T02:27:14;5.57;;;2.90;;
76512;SDS011;65345;0.000;0.000;2023-12-20T02:27:45;5.78;;;2.80;;
76512;SDS011;65345;0.000;0.000;2023-12-20T02:28:15;5.78;;;2.90;;
76512;SDS011;65345;0.000;0.000;2023-12-20T02:28:46;5.50;;;2.80;;
76512;SDS011;65345;0.000;0.000;2023-12-20T02:29:16;5.28;;;2.90;;
76512;SDS011;65345;0.000;0.000;2023-12-20T02:29:46;4.30;;;2.50;;
76512;SDS011;65345;0.000;0.000;2023-12-20T02:30:17;5.15;;;2.78;;
76512;SDS011;65345;0.000;0.000;2023-12-20T02:30:47;5.00;;;2.70;;
76512;SDS011;65345;0.000;0.000;2023-12-20T02:31:23;5.35;;;2.78;;
76512;SDS011;65345;0.000;0.000;2023-12-20T02:31:53;5.32;;;2.60;;
76512;SDS011;65345;0.000;0.000;2023-12-20T02:32:24;5.38;;;2.70;;
76512;SDS011;65345;0.000;0.000;2023-12-20T02:32:56;5.15;;;2.70;;
76512;SDS011;65345;0.000;0.000;2023-12-20T02:33:26;6.03;;;2.90;;
76512;SDS011;65345;0.000;0.000;2023-12-20T02:33:56;5.10;;;2.50;;
76512;SDS011;65345;0.000;0.000;2023-12-20T02:34:26;6.53;;;3.03;;
76512;SDS011;65345;0.000;0.000;2023-12-20T02:34:57;4.90;;;2.70;;
76512;SDS011;65345;0.000;0.000;2023-12-20T02:35:27;5.25;;;2.67;;
76512;SDS011;65345;0.000;0.000;2023-12-20T02:35:57;6.40;;;3.00;;
76512;SDS011;65345;0.000;0.000;2023-12-20T02:36:28;6.20;;;3.00;;
76512;SDS011;65345;0.000;0.000;2023-12-20T02:36:58;5.28;;;2.90;;
76512;SDS011;65345;0.000;0.000;2023-12-20T02:37:28;7.07;;;3.17;;
76512;SDS011;65345;0.000;0.000;2023-12-20T02:37:58;5.07;;;2.90;;
76512;SDS011;65345;0.000;0.000;2023-12-20T02:38:29;6.27;;;3.00;;
76512;SDS011;65345;0.000;0.000;2023-12-20T02:38:59;5.50;;;2.87;;
76512;SDS011;65345;0.000;0.000;2023-12-20T02:39:29;4.60;;;2.73;;
76512;SDS011;65345;0.000;0.000;2023-12-20T02:39:59;5.73;;;2.70;;
76512;SDS011;65345;0.000;0.000;2023-12-20T02:40:30;5.60;;;2.80;;
76512;SDS011;65345;0.000;0.000;2023-12-20T02:41:00;5.33;;;2.50;;
76512;SDS011;65345;0.000;0.000;2023-12-20T02:41:30;4.87;;;2.60;;
76512;SDS011;65345;0.000;0.000;2023-12-20T02:42:00;5.10;;;2.47;;
76512;SDS011;65345;0.000;0.000;2023-12-20T02:42:31;4.87;;;2.90;;
76512;SDS011;65345;0.000;0.000;2023-12-20T02:43:01;5.00;;;2.60;;
76512;SDS011;65345;0.000;0.000;2023-12-20T02:43:31;5.43;;;2.67;;
76512;SDS011;65345;0.000;0.000;2023-12-20T02:44:01;5.57;;;2.80;;
76512;SDS011;65345;0.000;0.000;2023-12-20T02:44:32;5.10;;;2.60;;
76512;SDS011;65345;0.000;0.000;2023-12-20T02:45:02;5.93;;;2.80;;
76512;SDS011;65345;0.000;0.000;2023-12-20T02:45:32;4.97;;;2.67;;
76512;SDS011;65345;0.000;0.000;2023-12-20T02:46:03;4.97;;;2.67;;
76512;SDS011;65345;0.000;0.000;2023-12-20T02:46:33;5.50;;;2.90;;
76512;SDS011;65345;0.000;0.000;2023-12-20T02:47:03;5.00;;;2.60;;
76512;SDS011;65345;0.000;0.000;2023-12-20T02:47:33;4.77;;;2.83;;
76512;SDS011;65345;0.000;0.000;2023-12-20T02:48:04;5.38;;;2.80;;
76512;SDS011;65345;0.000;0.000;2023-12-20T02:48:34;5.50;;;2.50;;
76512;SDS011;65345;0.000;0.000;2023-12-20T02:49:05;5.73;;;2.77;;
76512;SDS011;65345;0.000;0.000;2023-12-20T02:49:36;4.55;;;2.40;;
76512;SDS011;65345;0.000;0.000;2023-12-20T02:50:06;6.47;;;2.87;;
76512;SDS011;65345;0.000;0.000;2023-12-20T02:50:36;4.83;;;2.63;;
76512;SDS011;65345;0.000;0.000;2023-12-20T02:51:06;6.53;;;2.92;;
76512;SDS011;65345;0.000;0.000;2023-12-20T02:51:37;5.17;;;2.70;;
76512;SDS011;65345;0.000;0.000;2023-12-20T02:52:08;5.15;;;2.70;;
76512;SDS011;65345;0.000;0.000;2023-12-20T02:52:38;6.13;;;2.80;;
76512;SDS011;65345;0.000;0.000;2023-12-20T02:53:09;5.40;;;2.83;;
76512;SDS011;65345;0.000;0.000;2023-12-20T02:53:39;4.40;;;2.40;;
76512;SDS011;65345;0.000;0.000;2023-12-20T02:54:09;5.97;;;3.10;;
76512;SDS011;65345;0.000;0.000;2023-12-20T02:54:39;5.53;;;2.70;;
76512;SDS011;65345;0.000;0.000;2023-12-20T02:55:10;5.07;;;3.00;;
76512;SDS011;65345;0.000;0.000;2023-12-20T02:55:40;5.30;;;2.75;;
76512;SDS011;65345;0.000;0.000;2023-12-20T02:56:10;5.10;;;2.50;;
76512;SDS011;65345;0.000;0.000;2023-12-20T02:56:40;5.97;;;2.77;;
76512;SDS011;65345;0.000;0.000;2023-12-20T02:57:11;5.75;;;2.85;;
76512;SDS011;65345;0.000;0.000;2023-12-20T02:57:41;5.60;;;2.87;;
76512;SDS011;65345;0.000;0.000;2023-12-20T02:58:11;5.87;;;2.77;;
76512;SDS011;65345;0.000;0.000;2023-12-20T02:58:42;5.50;;;2.67;;
76512;SDS011;65345;0.000;0.000;2023-12-20T02:59:12;5.77;;;2.80;;
76512;SDS011;65345;0.000;0.000;2023-12-20T02:59:42;5.80;;;2.73;;
76512;SDS011;65345;0.000;0.000;2023-12-20T03:00:12;5.25;;;2.75;;
76512;SDS011;65345;0.000;0.000;2023-12-20T03:00:43;4.80;;;2.70;;
76512;SDS011;65345;0.000;0.000;2023-12-20T03:01:13;5.70;;;3.03;;
76512;SDS011;65345;0.000;0.000;2023-12-20T03:01:44;5.03;;;2.90;;
76512;SDS011;65345;0.000;0.000;2023-12-20T03:02:14;6.15;;;3.10;;
76512;SDS011;65345;0.000;0.000;2023-12-20T03:02:45;5.53;;;2.87;;
76512;SDS011;65345;0.000;0.000;2023-12-20T03:03:15;4.63;;;2.60;;
76512;SDS011;65345;0.000;0.000;2023-12-20T03:03:45;4.90;;;2.73;;
76512;SDS011;65345;0.000;0.000;2023-12-20T03:04:15;5.33;;;3.00;;
76512;SDS011;65345;0.000;0.000;2023-12-20T03:04:46;6.40;;;2.80;;
76512;SDS011;65345;0.000;0.000;2023-12-20T03:05:16;5.57;;;2.80;;
76512;SDS011;65345;0.000;0.000;2023-12-20T03:05:46;5.80;;;2.77;;
76512;SDS011;65345;0.000;0.000;2023-12-20T03:06:17;5.43;;;2.87;;